Time,TemperatureF,DewpointF,PressureIn,WindDirection,WindDirectionDegrees,WindSpeedMPH,WindSpeedGustMPH,Humidity,HourlyPrecipIn,Conditions,Clouds,dailyrainin,SolarRadiationWatts/m^2,SoftwareType,DateUTC
2013-07-24 00:03:00,58.4,51.9,30.00,North,9,0.0,0.0,79,0.00,CLR,,0.00,0.0,WeatherDisplay:10.37,2013-07-24 05:03:00,
2013-07-24 00:08:00,58.4,52.3,30.00,North,9,0.0,0.0,80,0.00,CLR,,0.00,0.0,WeatherDisplay:10.37,2013-07-24 05:08:00,
2013-07-24 04:05:00,53.5,51.5,30.03,North,9,0.0,0.0,93,0.00,CLR,,0.00,0.0,WeatherDisplay:10.37,2013-07-24 09:05:00,
2013-07-24 04:10:00,53.5,51.5,30.03,North,9,0.0,0.0,93,0.00,CLR,,0.00,0.0,WeatherDisplay:10.37,2013-07-24 09:10:00,
2013-07-24 04:15:00,53.5,51.5,30.03,North,9,0.0,0.0,93,0.00,CLR,,0.00,0.0,WeatherDisplay:10.37,2013-07-24 09:15:00,
2013-07-24 04:20:00,53.5,51.8,30.03,North,9,0.0,0.0,94,0.00,CLR,,0.00,0.0,WeatherDisplay:10.37,2013-07-24 09:20:00,
2013-07-24 04:25:00,53.3,51.6,30.03,North,9,0.0,0.0,94,0.00,CLR,,0.00,0.0,WeatherDisplay:10.37,2013-07-24 09:25:00,
2013-07-24 04:30:00,53.2,51.5,30.03,North,9,0.0,0.0,94,0.00,CLR,,0.00,0.0,WeatherDisplay:10.37,2013-07-24 09:30:00,
2013-07-24 04:35:00,53.1,51.4,30.03,North,9,0.0,0.0,94,0.00,CLR,,0.00,0.0,WeatherDisplay:10.37,2013-07-24 09:35:00,
2013-07-24 04:40:00,52.9,51.2,30.03,North,9,0.0,0.0,94,0.00,CLR,,0.00,0.0,WeatherDisplay:10.37,2013-07-24 09:40:00,
2013-07-24 04:45:00,52.8,51.1,30.03,North,9,0.0,0.0,94,0.00,CLR,,0.00,0.0,WeatherDisplay:10.37,2013-07-24 09:45:00,
2013-07-24 04:50:00,52.6,50.9,30.03,North,9,0.0,0.0,94,0.00,CLR,,0.00,0.0,WeatherDisplay:10.37,2013-07-24 09:50:00,
2013-07-24 04:55:00,52.6,50.9,30.03,North,9,0.0,0.0,94,0.00,CLR,,0.00,0.0,WeatherDisplay:10.37,2013-07-24 09:55:00,
2013-07-24 05:00:00,52.6,50.9,30.03,North,9,0.0,0.0,94,0.00,CLR,,0.00,0.0,WeatherDisplay:10.37,2013-07-24 10:00:00,
2013-07-24 05:05:00,52.6,50.9,30.03,North,9,0.0,0.0,94,0.00,CLR,,0.00,0.0,WeatherDisplay:10.37,2013-07-24 10:05:00,
2013-07-24 05:10:00,52.5,50.8,30.03,North,9,0.0,0.0,94,0.00,CLR,,0.00,0.0,WeatherDisplay:10.37,2013-07-24 10:10:00,
2013-07-24 05:15:00,52.3,50.6,30.03,North,9,0.0,0.0,94,0.00,CLR,,0.00,0.0,WeatherDisplay:10.37,2013-07-24 10:15:00,
2013-07-24 05:20:00,52.2,50.5,30.03,North,9,0.0,0.0,94,0.00,CLR,,0.00,0.0,WeatherDisplay:10.37,2013-07-24 10:20:00,
2013-07-24 05:25:00,52.2,50.5,30.03,North,9,0.0,0.0,94,0.00,CLR,,0.00,0.0,WeatherDisplay:10.37,2013-07-24 10:25:00,
2013-07-24 05:30:00,52.0,50.3,30.04,North,9,0.0,0.0,94,0.00,CLR,,0.00,0.0,WeatherDisplay:10.37,2013-07-24 10:30:00,
2013-07-24 05:35:00,51.9,50.2,30.04,North,9,0.0,0.0,94,0.00,CLR,,0.00,0.0,WeatherDisplay:10.37,2013-07-24 10:35:00,
2013-07-24 05:40:00,52.0,50.6,30.04,North,9,0.0,0.0,95,0.00,CLR,,0.00,0.0,WeatherDisplay:10.37,2013-07-24 10:40:00,
2013-07-24 05:45:00,52.0,50.6,30.05,North,9,0.0,0.0,95,0.00,CLR,,0.00,0.0,WeatherDisplay:10.37,2013-07-24 10:45:00,
2013-07-24 05:50:00,52.0,50.6,30.05,North,9,0.0,0.0,95,0.00,CLR,,0.00,5.0,WeatherDisplay:10.37,2013-07-24 10:50:00,
2013-07-24 05:55:00,51.9,50.5,30.05,North,9,0.0,0.0,95,0.00,CLR,,0.00,7.0,WeatherDisplay:10.37,2013-07-24 10:55:00,
2013-07-24 06:00:00,51.9,50.5,30.05,North,9,0.0,0.0,95,0.00,CLR,,0.00,9.0,WeatherDisplay:10.37,2013-07-24 11:00:00,
2013-07-24 06:05:00,51.7,50.3,30.05,North,9,0.0,0.0,95,0.00,CLR,,0.00,11.0,WeatherDisplay:10.37,2013-07-24 11:05:00,
2013-07-24 06:10:00,51.7,50.3,30.05,North,9,0.0,0.0,95,0.00,CLR,,0.00,12.0,WeatherDisplay:10.37,2013-07-24 11:10:00,
2013-07-24 06:15:00,51.6,50.2,30.05,North,9,0.0,0.0,95,0.00,CLR,,0.00,14.0,WeatherDisplay:10.37,2013-07-24 11:15:00,
2013-07-24 06:20:00,51.6,50.2,30.05,North,9,0.0,0.0,95,0.00,CLR,,0.00,16.0,WeatherDisplay:10.37,2013-07-24 11:20:00,
2013-07-24 06:25:00,51.7,50.6,30.05,North,9,0.0,0.0,96,0.00,CLR,,0.00,18.0,WeatherDisplay:10.37,2013-07-24 11:25:00,
2013-07-24 06:30:00,51.9,50.8,30.06,North,9,0.0,0.0,96,0.00,CLR,,0.00,19.0,WeatherDisplay:10.37,2013-07-24 11:30:00,
2013-07-24 06:35:00,51.9,50.8,30.06,North,9,0.0,0.0,96,0.00,CLR,,0.00,21.0,WeatherDisplay:10.37,2013-07-24 11:35:00,
2013-07-24 06:40:00,52.2,51.1,30.06,North,9,0.0,0.0,96,0.00,CLR,,0.00,23.0,WeatherDisplay:10.37,2013-07-24 11:40:00,
2013-07-24 06:45:00,52.3,51.2,30.05,North,9,0.0,0.0,96,0.00,CLR,,0.00,30.0,WeatherDisplay:10.37,2013-07-24 11:45:00,
2013-07-24 06:50:00,52.3,51.2,30.05,North,9,0.0,0.0,96,0.00,CLR,,0.00,35.0,WeatherDisplay:10.37,2013-07-24 11:50:00,
2013-07-24 06:55:00,52.5,51.4,30.05,North,9,0.0,0.0,96,0.00,CLR,,0.00,167.0,WeatherDisplay:10.37,2013-07-24 11:55:00,
2013-07-24 07:00:00,52.6,51.5,30.05,North,9,0.0,0.0,96,0.00,CLR,,0.00,190.0,WeatherDisplay:10.37,2013-07-24 12:00:00,
2013-07-24 07:05:00,52.8,51.7,30.05,North,9,0.0,0.0,96,0.00,CLR,,0.00,183.0,WeatherDisplay:10.37,2013-07-24 12:05:00,
2013-07-24 07:10:00,53.1,52.0,30.05,North,9,0.0,0.0,96,0.00,CLR,,0.00,149.0,WeatherDisplay:10.37,2013-07-24 12:10:00,
2013-07-24 07:15:00,53.2,51.8,30.06,North,9,0.0,0.0,95,0.00,CLR,,0.00,155.0,WeatherDisplay:10.37,2013-07-24 12:15:00,
2013-07-24 07:20:00,53.6,52.2,30.06,North,9,0.0,0.0,95,0.00,CLR,,0.00,253.0,WeatherDisplay:10.37,2013-07-24 12:20:00,
2013-07-24 07:25:00,54.2,52.8,30.06,North,9,0.0,0.0,95,0.00,CLR,,0.00,142.0,WeatherDisplay:10.37,2013-07-24 12:25:00,
2013-07-24 07:30:00,54.7,52.7,30.06,North,9,0.0,0.0,93,0.00,CLR,,0.00,181.0,WeatherDisplay:10.37,2013-07-24 12:30:00,
2013-07-24 07:35:00,55.0,52.7,30.06,North,9,0.0,0.0,92,0.00,CLR,,0.00,315.0,WeatherDisplay:10.37,2013-07-24 12:35:00,
2013-07-24 07:40:00,55.3,53.0,30.06,North,9,0.0,0.0,92,0.00,CLR,,0.00,253.0,WeatherDisplay:10.37,2013-07-24 12:40:00,
2013-07-24 07:45:00,55.9,53.0,30.06,North,9,0.0,0.0,90,0.00,CLR,,0.00,285.0,WeatherDisplay:10.37,2013-07-24 12:45:00,
2013-07-24 07:50:00,56.2,53.0,30.06,North,9,0.0,0.0,89,0.00,CLR,,0.00,214.0,WeatherDisplay:10.37,2013-07-24 12:50:00,
2013-07-24 07:55:00,56.6,53.1,30.06,North,9,0.0,0.0,88,0.00,CLR,,0.00,373.0,WeatherDisplay:10.37,2013-07-24 12:55:00,
2013-07-24 08:00:00,56.9,52.8,30.06,North,9,0.0,0.0,86,0.00,CLR,,0.00,204.0,WeatherDisplay:10.37,2013-07-24 13:00:00,
2013-07-24 08:05:00,57.5,53.3,30.06,North,9,0.0,0.0,86,0.00,CLR,,0.00,434.0,WeatherDisplay:10.37,2013-07-24 13:05:00,
2013-07-24 08:10:00,58.3,53.8,30.06,North,9,0.0,0.0,85,0.00,CLR,,0.00,436.0,WeatherDisplay:10.37,2013-07-24 13:10:00,
2013-07-24 08:15:00,58.6,53.5,30.07,North,9,0.0,0.0,83,0.00,CLR,,0.00,271.0,WeatherDisplay:10.37,2013-07-24 13:15:00,
2013-07-24 08:20:00,59.2,53.7,30.07,North,9,0.0,0.0,82,0.00,CLR,,0.00,338.0,WeatherDisplay:10.37,2013-07-24 13:20:00,
2013-07-24 08:25:00,59.6,53.8,30.07,North,9,0.0,0.0,81,0.00,CLR,,0.00,209.0,WeatherDisplay:10.37,2013-07-24 13:25:00,
2013-07-24 08:30:00,59.5,53.3,30.07,North,9,0.0,0.0,80,0.00,CLR,,0.00,388.0,WeatherDisplay:10.37,2013-07-24 13:30:00,
2013-07-24 08:35:00,59.8,53.6,30.07,North,9,0.0,0.0,80,0.00,CLR,,0.00,241.0,WeatherDisplay:10.37,2013-07-24 13:35:00,
2013-07-24 08:40:00,60.1,53.9,30.07,North,9,0.0,0.0,80,0.00,CLR,,0.00,274.0,WeatherDisplay:10.37,2013-07-24 13:40:00,
2013-07-24 08:45:00,61.0,54.8,30.07,North,9,0.0,0.0,80,0.00,CLR,,0.00,218.0,WeatherDisplay:10.37,2013-07-24 13:45:00,
2013-07-24 08:50:00,61.6,55.0,30.07,North,9,0.0,0.0,79,0.00,SCT,,0.00,309.0,WeatherDisplay:10.37,2013-07-24 13:50:00,
2013-07-24 08:55:00,61.8,54.9,30.07,North,9,0.0,0.0,78,0.00,SCT,,0.00,274.0,WeatherDisplay:10.37,2013-07-24 13:55:00,
2013-07-24 09:00:00,61.6,54.7,30.08,North,9,0.0,0.0,78,0.00,SCT,,0.00,272.0,WeatherDisplay:10.37,2013-07-24 14:00:00,
2013-07-24 09:05:00,62.0,55.4,30.08,North,9,0.0,0.0,79,0.00,BKN,,0.00,302.0,WeatherDisplay:10.37,2013-07-24 14:05:00,
2013-07-24 09:10:00,61.8,54.9,30.08,North,9,0.0,0.0,78,0.00,SCT,,0.00,329.0,WeatherDisplay:10.37,2013-07-24 14:10:00,
2013-07-24 09:15:00,62.0,54.7,30.08,North,9,0.0,0.0,77,0.00,BKN,,0.00,255.0,WeatherDisplay:10.37,2013-07-24 14:15:00,
2013-07-24 09:20:00,62.1,54.8,30.08,North,9,0.0,0.0,77,0.00,BKN,,0.00,221.0,WeatherDisplay:10.37,2013-07-24 14:20:00,
2013-07-24 09:25:00,62.3,55.0,30.08,North,9,0.0,0.0,77,0.00,BKN,,0.00,243.0,WeatherDisplay:10.37,2013-07-24 14:25:00,
2013-07-24 09:30:00,62.4,54.7,30.08,North,9,0.0,0.0,76,0.00,BKN,,0.00,445.0,WeatherDisplay:10.37,2013-07-24 14:30:00,
2013-07-24 09:35:00,62.7,55.4,30.08,North,9,0.0,0.0,77,0.00,SCT,,0.00,417.0,WeatherDisplay:10.37,2013-07-24 14:35:00,
2013-07-24 09:40:00,62.9,55.2,30.08,North,9,0.0,0.0,76,0.00,SCT,,0.00,561.0,WeatherDisplay:10.37,2013-07-24 14:40:00,
2013-07-24 09:45:00,63.4,55.0,30.07,North,9,0.0,0.0,74,0.00,CLR,,0.00,714.0,WeatherDisplay:10.37,2013-07-24 14:45:00,
2013-07-24 09:50:00,63.7,54.9,30.07,North,9,0.0,0.0,73,0.00,CLR,,0.00,635.0,WeatherDisplay:10.37,2013-07-24 14:50:00,
2013-07-24 09:55:00,64.2,54.2,30.07,North,9,0.0,0.0,70,0.00,SCT,,0.00,302.0,WeatherDisplay:10.37,2013-07-24 14:55:00,
2013-07-24 10:00:00,64.8,54.0,30.08,North,9,0.0,0.0,68,0.00,BKN,,0.00,334.0,WeatherDisplay:10.37,2013-07-24 15:00:00,
2013-07-24 10:05:00,65.2,54.0,30.08,North,9,0.0,0.0,67,0.00,BKN,,0.00,292.0,WeatherDisplay:10.37,2013-07-24 15:05:00,
2013-07-24 10:10:00,65.5,54.7,30.08,North,9,0.0,0.0,68,0.00,BKN,,0.00,322.0,WeatherDisplay:10.37,2013-07-24 15:10:00,
2013-07-24 10:15:00,65.8,55.3,30.08,North,9,0.0,0.0,69,0.00,BKN,,0.00,306.0,WeatherDisplay:10.37,2013-07-24 15:15:00,
2013-07-24 10:20:00,66.0,55.1,30.08,North,9,0.0,0.0,68,0.00,SCT,,0.00,879.0,WeatherDisplay:10.37,2013-07-24 15:20:00,
2013-07-24 10:25:00,67.3,54.3,30.08,North,9,0.0,0.0,63,0.00,CLR,,0.00,1000.0,WeatherDisplay:10.37,2013-07-24 15:25:00,
2013-07-24 10:30:00,68.6,54.2,30.08,North,9,0.0,0.0,60,0.00,CLR,,0.00,513.0,WeatherDisplay:10.37,2013-07-24 15:30:00,
2013-07-24 10:35:00,67.9,52.6,30.08,North,9,0.0,0.0,58,0.00,SCT,,0.00,515.0,WeatherDisplay:10.37,2013-07-24 15:35:00,
2013-07-24 10:40:00,68.1,51.8,30.08,North,9,0.0,0.0,56,0.00,SCT,,0.00,805.0,WeatherDisplay:10.37,2013-07-24 15:40:00,
2013-07-24 10:45:00,68.3,50.0,30.08,North,9,0.0,0.0,52,0.00,CLR,,0.00,1074.0,WeatherDisplay:10.37,2013-07-24 15:45:00,
2013-07-24 10:50:00,68.3,50.5,30.08,North,9,0.0,0.0,53,0.00,CLR,,0.00,624.0,WeatherDisplay:10.37,2013-07-24 15:50:00,
2013-07-24 10:55:00,68.3,51.5,30.08,North,9,0.0,0.0,55,0.00,SCT,,0.00,1035.0,WeatherDisplay:10.37,2013-07-24 15:55:00,
2013-07-24 11:00:00,68.4,51.1,30.08,East,81,0.0,0.0,54,0.00,CLR,,0.00,784.0,WeatherDisplay:10.37,2013-07-24 16:00:00,
2013-07-24 11:05:00,68.4,51.6,30.08,East,98,0.0,0.0,55,0.00,SCT,,0.00,684.0,WeatherDisplay:10.37,2013-07-24 16:05:00,
2013-07-24 11:10:00,68.8,49.9,30.08,East,98,0.0,0.0,51,0.00,SCT,,0.00,737.0,WeatherDisplay:10.37,2013-07-24 16:10:00,
2013-07-24 11:15:00,69.1,49.1,30.07,ESE,109,0.0,0.0,49,0.00,CLR,,0.00,879.0,WeatherDisplay:10.37,2013-07-24 16:15:00,
2013-07-24 11:20:00,68.1,50.8,30.07,NW,317,0.0,0.0,54,0.00,CLR,,0.00,881.0,WeatherDisplay:10.37,2013-07-24 16:20:00,
2013-07-24 11:25:00,69.8,49.8,30.07,East,100,0.0,1.2,49,0.00,CLR,,0.00,898.0,WeatherDisplay:10.37,2013-07-24 16:25:00,
2013-07-24 11:30:00,69.8,51.4,30.07,East,101,0.0,0.0,52,0.00,FEW,,0.00,893.0,WeatherDisplay:10.37,2013-07-24 16:30:00,
2013-07-24 11:35:00,70.1,49.5,30.07,East,89,0.0,0.0,48,0.00,FEW,,0.00,884.0,WeatherDisplay:10.37,2013-07-24 16:35:00,
2013-07-24 11:40:00,70.4,50.9,30.07,East,89,0.0,0.0,50,0.00,SCT,,0.00,151.0,WeatherDisplay:10.37,2013-07-24 16:40:00,
2013-07-24 11:45:00,71.5,50.2,30.07,East,84,0.0,0.0,47,0.00,SCT,,0.00,909.0,WeatherDisplay:10.37,2013-07-24 16:45:00,
2013-07-24 11:50:00,70.6,49.4,30.07,East,82,0.0,0.0,47,0.00,FEW,,0.00,937.0,WeatherDisplay:10.37,2013-07-24 16:50:00,
2013-07-24 11:55:00,70.1,50.0,30.07,WNW,292,1.1,3.3,49,0.00,CLR,,0.00,1004.0,WeatherDisplay:10.37,2013-07-24 16:55:00,
2013-07-24 12:00:00,70.1,48.9,30.07,WNW,292,0.1,1.2,47,0.00,SCT,,0.00,334.0,WeatherDisplay:10.37,2013-07-24 17:00:00,
2013-07-24 12:05:00,70.1,50.0,30.07,WNW,292,0.0,0.0,49,0.00,BKN,,0.00,501.0,WeatherDisplay:10.37,2013-07-24 17:05:00,
2013-07-24 12:10:00,70.4,49.8,30.07,ENE,61,0.0,1.2,48,0.00,SCT,,0.00,693.0,WeatherDisplay:10.37,2013-07-24 17:10:00,
2013-07-24 12:15:00,72.3,50.9,30.07,ENE,61,0.0,0.0,47,0.00,SCT,,0.00,942.0,WeatherDisplay:10.37,2013-07-24 17:15:00,
2013-07-24 12:20:00,72.5,49.9,30.07,SSE,147,0.0,1.2,45,0.00,CLR,,0.00,1090.0,WeatherDisplay:10.37,2013-07-24 17:20:00,
2013-07-24 12:25:00,70.9,49.1,30.07,SSE,166,0.0,1.2,46,0.00,CLR,,0.00,1032.0,WeatherDisplay:10.37,2013-07-24 17:25:00,
2013-07-24 12:30:00,71.5,48.4,30.07,ENE,64,0.0,0.0,44,0.00,CLR,,0.00,1014.0,WeatherDisplay:10.37,2013-07-24 17:30:00,
2013-07-24 12:35:00,72.5,49.3,30.07,ENE,64,0.0,0.0,44,0.00,CLR,,0.00,993.0,WeatherDisplay:10.37,2013-07-24 17:35:00,
2013-07-24 12:40:00,73.0,49.8,30.07,ENE,64,0.0,0.0,44,0.00,CLR,,0.00,993.0,WeatherDisplay:10.37,2013-07-24 17:40:00,
2013-07-24 12:45:00,72.8,49.0,30.07,ENE,64,0.0,0.0,43,0.00,CLR,,0.00,1039.0,WeatherDisplay:10.37,2013-07-24 17:45:00,
2013-07-24 12:50:00,72.5,48.7,30.07,ENE,64,0.0,0.0,43,0.00,CLR,,0.00,1086.0,WeatherDisplay:10.37,2013-07-24 17:50:00,
2013-07-24 12:55:00,71.8,49.3,30.07,NE,49,0.1,1.2,45,0.00,SCT,,0.00,475.0,WeatherDisplay:10.37,2013-07-24 17:55:00,
2013-07-24 13:00:00,72.3,49.2,30.06,NE,49,0.0,0.0,44,0.00,SCT,,0.00,1111.0,WeatherDisplay:10.37,2013-07-24 18:00:00,
2013-07-24 13:05:00,72.1,48.4,30.06,NE,53,0.0,1.2,43,0.00,SCT,,0.00,589.0,WeatherDisplay:10.37,2013-07-24 18:05:00,
2013-07-24 13:10:00,71.5,49.6,30.06,NE,53,0.0,0.0,46,0.00,SCT,,0.00,970.0,WeatherDisplay:10.37,2013-07-24 18:10:00,
2013-07-24 13:15:00,72.5,48.7,30.05,NE,53,0.0,0.0,43,0.00,CLR,,0.00,1088.0,WeatherDisplay:10.37,2013-07-24 18:15:00,
2013-07-24 13:20:00,73.5,50.9,30.05,NE,53,0.0,0.0,45,0.00,CLR,,0.00,1088.0,WeatherDisplay:10.37,2013-07-24 18:20:00,
2013-07-24 13:25:00,73.2,50.6,30.05,NE,53,0.0,0.0,45,0.00,BKN,,0.00,295.0,WeatherDisplay:10.37,2013-07-24 18:25:00,
2013-07-24 13:30:00,73.2,50.6,30.05,NE,53,0.0,0.0,45,0.00,BKN,,0.00,1092.0,WeatherDisplay:10.37,2013-07-24 18:30:00,
2013-07-24 13:35:00,73.0,52.1,30.05,NE,53,0.0,0.0,48,0.00,CLR,,0.00,1046.0,WeatherDisplay:10.37,2013-07-24 18:35:00,
2013-07-24 13:40:00,73.5,50.2,30.05,NE,53,0.0,0.0,44,0.00,CLR,,0.00,1104.0,WeatherDisplay:10.37,2013-07-24 18:40:00,
2013-07-24 13:45:00,73.7,49.8,30.05,NE,53,0.0,0.0,43,0.00,FEW,,0.00,258.0,WeatherDisplay:10.37,2013-07-24 18:45:00,
2013-07-24 13:50:00,73.2,51.8,30.05,NE,53,0.0,1.1,47,0.00,SCT,,0.00,1016.0,WeatherDisplay:10.37,2013-07-24 18:50:00,
2013-07-24 13:55:00,72.8,51.4,30.05,NE,55,0.1,1.1,47,0.00,CLR,,0.00,1016.0,WeatherDisplay:10.37,2013-07-24 18:55:00,
2013-07-24 14:00:00,72.7,50.1,30.05,NE,55,0.0,1.2,45,0.00,SCT,,0.00,176.0,WeatherDisplay:10.37,2013-07-24 19:00:00,
2013-07-24 14:05:00,72.3,49.8,30.05,NE,55,0.0,0.0,45,0.00,BKN,,0.00,220.0,WeatherDisplay:10.37,2013-07-24 19:05:00,
2013-07-24 14:10:00,72.3,49.8,30.05,NE,55,0.0,0.0,45,0.00,BKN,,0.00,267.0,WeatherDisplay:10.37,2013-07-24 19:10:00,
2013-07-24 14:15:00,72.7,49.5,30.05,NE,55,0.0,0.0,44,0.00,FEW,,0.00,1034.0,WeatherDisplay:10.37,2013-07-24 19:15:00,
2013-07-24 14:20:00,73.3,50.1,30.05,NE,55,0.0,1.2,44,0.00,CLR,,0.00,1016.0,WeatherDisplay:10.37,2013-07-24 19:20:00,
2013-07-24 14:25:00,73.9,50.6,30.05,NE,55,0.0,0.0,44,0.00,SCT,,0.00,225.0,WeatherDisplay:10.37,2013-07-24 19:25:00,
2013-07-24 14:30:00,73.0,51.0,30.05,ENE,65,0.0,0.0,46,0.00,BKN,,0.00,174.0,WeatherDisplay:10.37,2013-07-24 19:30:00,
2013-07-24 14:35:00,72.3,50.9,30.05,ENE,65,0.0,1.2,47,0.00,BKN,,0.00,179.0,WeatherDisplay:10.37,2013-07-24 19:35:00,
2013-07-24 14:40:00,71.8,49.9,30.05,ENE,65,0.0,0.0,46,0.00,BKN,,0.00,209.0,WeatherDisplay:10.37,2013-07-24 19:40:00,
2013-07-24 14:45:00,71.6,49.7,30.05,ENE,65,0.0,0.0,46,0.00,BKN,,0.00,236.0,WeatherDisplay:10.37,2013-07-24 19:45:00,
2013-07-24 14:50:00,71.3,48.9,30.05,ENE,65,0.0,0.0,45,0.00,BKN,,0.00,192.0,WeatherDisplay:10.37,2013-07-24 19:50:00,
2013-07-24 14:55:00,71.3,51.1,30.05,ENE,65,0.0,0.0,49,0.00,BKN,,0.00,181.0,WeatherDisplay:10.37,2013-07-24 19:55:00,
2013-07-24 15:00:00,71.6,51.4,30.05,ENE,65,0.0,0.0,49,0.00,BKN,,0.00,209.0,WeatherDisplay:10.37,2013-07-24 20:00:00,
2013-07-24 15:05:00,71.6,49.1,30.05,ENE,67,1.1,3.5,45,0.00,BKN,,0.00,907.0,WeatherDisplay:10.37,2013-07-24 20:05:00,
2013-07-24 15:10:00,72.3,49.8,30.05,ENE,67,0.0,1.1,45,0.00,CLR,,0.00,870.0,WeatherDisplay:10.37,2013-07-24 20:10:00,
2013-07-24 15:15:00,72.8,50.2,30.05,ENE,67,0.9,3.3,45,0.00,CLR,,0.00,868.0,WeatherDisplay:10.37,2013-07-24 20:15:00,
2013-07-24 15:20:00,73.0,50.4,30.05,NE,48,0.9,3.5,45,0.00,CLR,,0.00,867.0,WeatherDisplay:10.37,2013-07-24 20:20:00,
2013-07-24 15:25:00,73.3,50.7,30.05,NE,48,0.0,1.1,45,0.00,SCT,,0.00,255.0,WeatherDisplay:10.37,2013-07-24 20:25:00,
2013-07-24 15:30:00,73.5,53.2,30.05,SSE,158,0.1,1.2,49,0.00,BKN,,0.00,874.0,WeatherDisplay:10.37,2013-07-24 20:30:00,
2013-07-24 15:35:00,74.6,51.9,30.05,ENE,76,1.0,3.5,45,0.00,CLR,,0.00,865.0,WeatherDisplay:10.37,2013-07-24 20:35:00,
2013-07-24 15:40:00,74.6,51.2,30.05,SE,142,1.6,4.6,44,0.00,CLR,,0.00,824.0,WeatherDisplay:10.37,2013-07-24 20:40:00,
2013-07-24 15:45:00,74.6,51.2,30.04,SSE,151,0.0,5.8,44,0.00,CLR,,0.00,795.0,WeatherDisplay:10.37,2013-07-24 20:45:00,
2013-07-24 15:50:00,74.6,49.3,30.04,SE,134,0.0,1.2,41,0.00,CLR,,0.00,814.0,WeatherDisplay:10.37,2013-07-24 20:50:00,
2013-07-24 15:55:00,75.6,51.5,30.04,ESE,121,0.0,1.1,43,0.00,CLR,,0.00,779.0,WeatherDisplay:10.37,2013-07-24 20:55:00,
2013-07-24 16:01:00,76.1,49.3,30.04,SSW,193,0.4,4.4,39,0.00,CLR,,0.00,756.0,WeatherDisplay:10.37,2013-07-24 21:01:00,
2013-07-24 16:05:00,75.4,50.1,30.04,SSW,197,0.0,0.0,41,0.00,CLR,,0.00,712.0,WeatherDisplay:10.37,2013-07-24 21:05:00,
2013-07-24 16:10:00,75.3,51.3,30.04,SSE,158,0.0,0.0,43,0.00,CLR,,0.00,724.0,WeatherDisplay:10.37,2013-07-24 21:10:00,
2013-07-24 16:15:00,75.4,51.3,30.03,South,186,1.0,4.6,43,0.00,CLR,,0.00,710.0,WeatherDisplay:10.37,2013-07-24 21:15:00,
2013-07-24 16:20:00,75.4,50.7,30.03,SE,142,1.1,7.7,42,0.00,CLR,,0.00,679.0,WeatherDisplay:10.37,2013-07-24 21:20:00,
2013-07-24 16:25:00,75.6,51.5,30.03,South,175,0.1,1.2,43,0.00,CLR,,0.00,654.0,WeatherDisplay:10.37,2013-07-24 21:25:00,
2013-07-24 16:30:00,75.4,52.0,30.03,South,173,0.1,1.2,44,0.00,CLR,,0.00,647.0,WeatherDisplay:10.37,2013-07-24 21:30:00,
2013-07-24 16:35:00,74.4,50.4,30.03,SSE,166,0.0,1.2,43,0.00,CLR,,0.00,642.0,WeatherDisplay:10.37,2013-07-24 21:35:00,
2013-07-24 16:40:00,74.2,49.0,30.03,SW,227,0.0,0.0,41,0.00,FEW,,0.00,589.0,WeatherDisplay:10.37,2013-07-24 21:40:00,
2013-07-24 16:46:00,74.4,51.1,30.03,SW,217,0.0,1.2,44,0.00,FEW,,0.00,633.0,WeatherDisplay:10.37,2013-07-24 21:46:00,
2013-07-24 16:50:00,74.2,52.1,30.03,SW,217,0.0,6.9,46,0.00,SCT,,0.00,601.0,WeatherDisplay:10.37,2013-07-24 21:50:00,
2013-07-24 16:56:00,73.9,49.4,30.03,SSE,166,0.0,0.0,42,0.00,CLR,,0.00,592.0,WeatherDisplay:10.37,2013-07-24 21:56:00,
2013-07-24 17:01:00,74.2,51.5,30.03,SSE,167,0.8,7.7,45,0.00,CLR,,0.00,584.0,WeatherDisplay:10.37,2013-07-24 22:01:00,
2013-07-24 17:06:00,73.9,52.4,30.03,SSE,168,0.0,0.0,47,0.00,SCT,,0.00,105.0,WeatherDisplay:10.37,2013-07-24 22:06:00,
2013-07-24 17:11:00,73.5,50.9,30.03,SSE,168,0.0,0.0,45,0.00,BKN,,0.00,186.0,WeatherDisplay:10.37,2013-07-24 22:11:00,
2013-07-24 17:16:00,73.5,51.4,30.03,SSE,168,0.0,0.0,46,0.00,SCT,,0.00,555.0,WeatherDisplay:10.37,2013-07-24 22:16:00,
2013-07-24 17:21:00,74.0,51.3,30.03,SSE,168,0.0,0.0,45,0.00,CLR,,0.00,555.0,WeatherDisplay:10.37,2013-07-24 22:21:00,
2013-07-24 17:26:00,74.2,52.7,30.03,SSE,168,0.0,0.0,47,0.00,FEW,,0.00,186.0,WeatherDisplay:10.37,2013-07-24 22:26:00,
2013-07-24 17:31:00,74.4,52.3,30.03,SSE,168,0.0,0.0,46,0.00,FEW,,0.00,520.0,WeatherDisplay:10.37,2013-07-24 22:31:00,
2013-07-24 17:36:00,74.6,51.2,30.03,SSE,168,0.0,0.0,44,0.00,CLR,,0.00,102.0,WeatherDisplay:10.37,2013-07-24 22:36:00,
2013-07-24 17:41:00,74.0,53.1,30.03,SSE,168,0.0,0.0,48,0.00,CLR,,0.00,81.0,WeatherDisplay:10.37,2013-07-24 22:41:00,
2013-07-24 17:46:00,73.7,53.3,30.02,SSE,168,0.0,0.0,49,0.00,CLR,,0.00,76.0,WeatherDisplay:10.37,2013-07-24 22:46:00,
2013-07-24 17:51:00,73.2,52.3,30.02,South,171,0.0,0.0,48,0.00,CLR,,0.00,93.0,WeatherDisplay:10.37,2013-07-24 22:51:00,
2013-07-24 17:56:00,73.3,53.0,30.02,South,171,0.0,1.2,49,0.00,CLR,,0.00,427.0,WeatherDisplay:10.37,2013-07-24 22:56:00,
2013-07-24 18:01:00,73.2,52.3,30.02,SSW,208,1.1,4.4,48,0.00,CLR,,0.00,390.0,WeatherDisplay:10.37,2013-07-24 23:01:00,
2013-07-24 18:06:00,72.8,52.0,30.02,SSW,211,0.0,0.0,48,0.00,CLR,,0.00,362.0,WeatherDisplay:10.37,2013-07-24 23:06:00,
2013-07-24 18:11:00,73.0,53.3,30.02,South,190,0.0,5.8,50,0.00,CLR,,0.00,113.0,WeatherDisplay:10.37,2013-07-24 23:11:00,
2013-07-24 18:17:00,72.8,53.1,30.02,South,190,0.0,0.0,50,0.00,CLR,,0.00,113.0,WeatherDisplay:10.37,2013-07-24 23:17:00,
2013-07-24 18:22:00,72.7,52.5,30.02,South,190,0.0,3.0,49,0.00,CLR,,0.00,107.0,WeatherDisplay:10.37,2013-07-24 23:22:00,
2013-07-24 18:27:00,72.3,53.2,30.02,South,190,0.0,0.0,51,0.00,CLR,,0.00,109.0,WeatherDisplay:10.37,2013-07-24 23:27:00,
2013-07-24 18:32:00,72.4,53.2,30.02,South,190,0.0,0.0,51,0.00,CLR,,0.00,97.0,WeatherDisplay:10.37,2013-07-24 23:32:00,
2013-07-24 18:37:00,72.5,52.8,30.02,South,190,0.0,0.0,50,0.00,CLR,,0.00,114.0,WeatherDisplay:10.37,2013-07-24 23:37:00,
2013-07-24 18:42:00,72.5,54.4,30.02,South,190,0.0,0.0,53,0.00,CLR,,0.00,109.0,WeatherDisplay:10.37,2013-07-24 23:42:00,
2013-07-24 18:47:00,72.5,54.9,30.02,South,190,0.0,0.0,54,0.00,CLR,,0.00,102.0,WeatherDisplay:10.37,2013-07-24 23:47:00,
2013-07-24 18:52:00,72.3,52.1,30.02,South,190,0.0,0.0,49,0.00,CLR,,0.00,100.0,WeatherDisplay:10.37,2013-07-24 23:52:00,
2013-07-24 18:57:00,72.5,53.9,30.02,South,190,0.0,0.0,52,0.00,CLR,,0.00,95.0,WeatherDisplay:10.37,2013-07-24 23:57:00,
2013-07-24 19:02:00,72.5,54.4,30.02,South,190,0.0,0.0,53,0.00,CLR,,0.00,88.0,WeatherDisplay:10.37,2013-07-25 00:02:00,
2013-07-24 19:07:00,72.3,53.7,30.02,South,190,0.0,1.0,52,0.00,CLR,,0.00,76.0,WeatherDisplay:10.37,2013-07-25 00:07:00,
2013-07-24 19:12:00,72.1,51.9,30.02,South,190,0.0,0.0,49,0.00,CLR,,0.00,70.0,WeatherDisplay:10.37,2013-07-25 00:12:00,
2013-07-24 19:17:00,72.1,52.4,30.02,South,190,0.0,0.0,50,0.00,CLR,,0.00,63.0,WeatherDisplay:10.37,2013-07-25 00:17:00,
2013-07-24 19:22:00,72.1,54.0,30.02,South,190,0.0,0.0,53,0.00,CLR,,0.00,58.0,WeatherDisplay:10.37,2013-07-25 00:22:00,
2013-07-24 19:27:00,72.0,53.9,30.02,South,190,0.0,0.0,53,0.00,CLR,,0.00,51.0,WeatherDisplay:10.37,2013-07-25 00:27:00,
2013-07-24 19:32:00,71.8,53.2,30.02,South,190,0.0,1.0,52,0.00,CLR,,0.00,47.0,WeatherDisplay:10.37,2013-07-25 00:32:00,
2013-07-24 19:37:00,71.6,53.0,30.02,South,190,0.0,0.0,52,0.00,CLR,,0.00,44.0,WeatherDisplay:10.37,2013-07-25 00:37:00,
2013-07-24 19:42:00,71.3,52.8,30.02,South,190,0.0,0.0,52,0.00,CLR,,0.00,35.0,WeatherDisplay:10.37,2013-07-25 00:42:00,
2013-07-24 19:47:00,71.1,53.1,30.02,South,190,0.0,0.0,53,0.00,CLR,,0.00,30.0,WeatherDisplay:10.37,2013-07-25 00:47:00,
2013-07-24 19:52:00,70.9,52.9,30.02,South,190,0.0,1.2,53,0.00,CLR,,0.00,25.0,WeatherDisplay:10.37,2013-07-25 00:52:00,
2013-07-24 19:57:00,70.6,53.6,30.02,South,190,0.0,0.0,55,0.00,CLR,,0.00,23.0,WeatherDisplay:10.37,2013-07-25 00:57:00,
2013-07-24 20:02:00,70.4,54.0,30.02,South,190,0.3,2.2,56,0.00,CLR,,0.00,18.0,WeatherDisplay:10.37,2013-07-25 01:02:00,
2013-07-24 20:07:00,70.3,54.8,30.02,South,190,0.0,0.0,58,0.00,CLR,,0.00,14.0,WeatherDisplay:10.37,2013-07-25 01:07:00,
2013-07-24 20:12:00,70.1,55.1,30.02,South,190,0.0,1.1,59,0.00,CLR,,0.00,12.0,WeatherDisplay:10.37,2013-07-25 01:12:00,
2013-07-24 20:17:00,69.9,54.9,30.01,South,190,0.0,0.0,59,0.00,CLR,,0.00,9.0,WeatherDisplay:10.37,2013-07-25 01:17:00,
2013-07-24 20:22:00,69.8,55.3,30.01,South,190,0.0,0.0,60,0.00,CLR,,0.00,7.0,WeatherDisplay:10.37,2013-07-25 01:22:00,
2013-07-24 20:27:00,69.6,55.1,30.01,South,190,0.0,0.0,60,0.00,CLR,,0.00,5.0,WeatherDisplay:10.37,2013-07-25 01:27:00,
2013-07-24 20:32:00,69.4,54.4,30.01,South,190,0.0,0.0,59,0.00,CLR,,0.00,0.0,WeatherDisplay:10.37,2013-07-25 01:32:00,
2013-07-24 20:37:00,69.3,54.4,30.01,South,190,0.0,1.1,59,0.00,CLR,,0.00,0.0,WeatherDisplay:10.37,2013-07-25 01:37:00,
2013-07-24 20:43:00,69.1,54.6,30.01,South,190,0.0,0.0,60,0.00,CLR,,0.00,0.0,WeatherDisplay:10.37,2013-07-25 01:43:00,
2013-07-24 20:48:00,68.9,54.9,30.01,South,190,0.0,0.0,61,0.00,CLR,,0.00,0.0,WeatherDisplay:10.37,2013-07-25 01:48:00,
2013-07-24 20:53:00,68.8,54.8,30.01,South,190,0.0,0.0,61,0.00,CLR,,0.00,0.0,WeatherDisplay:10.37,2013-07-25 01:53:00,
2013-07-24 20:58:00,68.6,55.1,30.01,South,190,0.0,1.2,62,0.00,CLR,,0.00,0.0,WeatherDisplay:10.37,2013-07-25 01:58:00,
2013-07-24 21:03:00,68.3,55.2,30.01,South,190,0.0,0.0,63,0.00,CLR,,0.00,0.0,WeatherDisplay:10.37,2013-07-25 02:03:00,
2013-07-24 21:08:00,68.1,55.0,30.01,South,190,0.0,0.0,63,0.00,CLR,,0.00,0.0,WeatherDisplay:10.37,2013-07-25 02:08:00,
2013-07-24 21:13:00,67.9,55.3,30.01,South,190,0.0,0.0,64,0.00,CLR,,0.00,0.0,WeatherDisplay:10.37,2013-07-25 02:13:00,
2013-07-24 21:18:00,67.8,55.6,30.01,South,190,0.0,1.2,65,0.00,CLR,,0.00,0.0,WeatherDisplay:10.37,2013-07-25 02:18:00,
2013-07-24 21:23:00,67.6,55.8,30.01,South,190,0.0,0.0,66,0.00,CLR,,0.00,0.0,WeatherDisplay:10.37,2013-07-25 02:23:00,
2013-07-24 21:28:00,67.4,55.6,30.01,South,190,0.0,0.0,66,0.00,CLR,,0.00,0.0,WeatherDisplay:10.37,2013-07-25 02:28:00,
2013-07-24 21:33:00,67.3,56.0,30.01,South,190,0.0,0.0,67,0.00,CLR,,0.00,0.0,WeatherDisplay:10.37,2013-07-25 02:33:00,
2013-07-24 21:38:00,66.9,56.0,30.01,South,190,0.0,0.0,68,0.00,CLR,,0.00,0.0,WeatherDisplay:10.37,2013-07-25 02:38:00,
2013-07-24 21:43:00,66.9,56.0,30.01,South,190,0.0,0.0,68,0.00,CLR,,0.00,0.0,WeatherDisplay:10.37,2013-07-25 02:43:00,
2013-07-24 21:48:00,66.8,56.3,30.02,South,190,0.0,0.0,69,0.00,CLR,,0.00,0.0,WeatherDisplay:10.37,2013-07-25 02:48:00,
2013-07-24 21:53:00,66.3,56.2,30.02,South,190,0.0,0.0,70,0.00,CLR,,0.00,0.0,WeatherDisplay:10.37,2013-07-25 02:53:00,
2013-07-24 21:58:00,66.1,56.0,30.02,South,190,0.0,0.0,70,0.00,CLR,,0.00,0.0,WeatherDisplay:10.37,2013-07-25 02:58:00,
2013-07-24 22:03:00,66.0,56.7,30.02,South,190,0.0,0.0,72,0.00,CLR,,0.00,0.0,WeatherDisplay:10.37,2013-07-25 03:03:00,
2013-07-24 22:08:00,65.6,56.3,30.02,South,190,0.0,0.0,72,0.00,CLR,,0.00,0.0,WeatherDisplay:10.37,2013-07-25 03:08:00,
2013-07-24 22:13:00,65.3,56.0,30.02,South,190,0.0,0.0,72,0.00,CLR,,0.00,0.0,WeatherDisplay:10.37,2013-07-25 03:13:00,
2013-07-24 22:18:00,65.2,56.3,30.02,South,190,0.0,0.0,73,0.00,CLR,,0.00,0.0,WeatherDisplay:10.37,2013-07-25 03:18:00,
2013-07-24 22:23:00,65.0,56.1,30.02,South,190,0.0,0.0,73,0.00,CLR,,0.00,0.0,WeatherDisplay:10.37,2013-07-25 03:23:00,
2013-07-24 22:29:00,65.0,56.1,30.02,South,190,0.0,0.0,73,0.00,CLR,,0.00,0.0,WeatherDisplay:10.37,2013-07-25 03:29:00,
2013-07-24 22:34:00,64.8,55.9,30.02,South,190,0.0,0.0,73,0.00,CLR,,0.00,0.0,WeatherDisplay:10.37,2013-07-25 03:34:00,
2013-07-24 22:39:00,64.7,55.8,30.02,South,190,0.0,0.0,73,0.00,CLR,,0.00,0.0,WeatherDisplay:10.37,2013-07-25 03:39:00,
2013-07-24 22:44:00,64.5,56.0,30.02,South,190,0.0,0.0,74,0.00,CLR,,0.00,0.0,WeatherDisplay:10.37,2013-07-25 03:44:00,
2013-07-24 22:49:00,64.3,55.8,30.03,South,190,0.0,0.0,74,0.00,CLR,,0.00,0.0,WeatherDisplay:10.37,2013-07-25 03:49:00,
2013-07-24 22:54:00,64.0,55.5,30.03,South,190,0.0,0.0,74,0.00,CLR,,0.00,0.0,WeatherDisplay:10.37,2013-07-25 03:54:00,
2013-07-24 22:59:00,63.7,55.6,30.03,South,190,0.0,0.0,75,0.00,CLR,,0.00,0.0,WeatherDisplay:10.37,2013-07-25 03:59:00,
2013-07-24 23:01:00,63.5,55.8,30.03,South,190,0.0,0.0,76,0.00,CLR,,0.00,0.0,WeatherDisplay:10.37,2013-07-25 04:01:00,
2013-07-24 23:02:00,63.5,55.8,30.03,South,190,0.0,0.0,76,0.00,CLR,,0.00,0.0,WeatherDisplay:10.37,2013-07-25 04:02:00,
2013-07-24 23:07:00,63.2,55.5,30.03,South,190,0.0,0.0,76,0.00,CLR,,0.00,0.0,WeatherDisplay:10.37,2013-07-25 04:07:00,
2013-07-24 23:12:00,62.9,55.6,30.03,South,190,0.0,0.0,77,0.00,CLR,,0.00,0.0,WeatherDisplay:10.37,2013-07-25 04:12:00,
2013-07-24 23:17:00,62.6,55.6,30.03,South,190,0.0,0.0,78,0.00,CLR,,0.00,0.0,WeatherDisplay:10.37,2013-07-25 04:17:00,
2013-07-24 23:22:00,62.3,55.4,30.03,South,190,0.0,0.0,78,0.00,CLR,,0.00,0.0,WeatherDisplay:10.37,2013-07-25 04:22:00,
2013-07-24 23:27:00,62.0,55.4,30.03,South,190,0.0,0.0,79,0.00,CLR,,0.00,0.0,WeatherDisplay:10.37,2013-07-25 04:27:00,
2013-07-24 23:32:00,61.8,55.2,30.03,South,190,0.0,0.0,79,0.00,CLR,,0.00,0.0,WeatherDisplay:10.37,2013-07-25 04:32:00,
2013-07-24 23:37:00,61.5,55.3,30.03,South,190,0.0,0.0,80,0.00,CLR,,0.00,0.0,WeatherDisplay:10.37,2013-07-25 04:37:00,
2013-07-24 23:42:00,61.3,55.1,30.03,South,190,0.0,0.0,80,0.00,CLR,,0.00,0.0,WeatherDisplay:10.37,2013-07-25 04:42:00,
2013-07-24 23:47:00,61.2,55.0,30.03,South,190,0.0,0.0,80,0.00,CLR,,0.00,0.0,WeatherDisplay:10.37,2013-07-25 04:47:00,
2013-07-24 23:52:00,60.9,55.0,30.03,South,190,0.0,0.0,81,0.00,CLR,,0.00,0.0,WeatherDisplay:10.37,2013-07-25 04:52:00,
2013-07-24 23:57:00,60.7,54.8,30.03,South,190,0.0,0.0,81,0.00,CLR,,0.00,0.0,WeatherDisplay:10.37,2013-07-25 04:57:00,